createdAt,value
2023-02-21T00:00:25.661Z,0.00
2023-02-21T00:01:25.648Z,0.00
2023-02-21T00:02:25.722Z,0.00
2023-02-21T00:03:25.641Z,0.00
2023-02-21T00:04:25.831Z,0.00
2023-02-21T00:05:25.806Z,0.00
2023-02-21T00:06:25.582Z,0.00
2023-02-21T00:07:25.632Z,0.00
2023-02-21T00:08:26.349Z,0.00
2023-02-21T00:09:26.141Z,0.00
2023-02-21T00:10:25.569Z,0.00
2023-02-21T00:11:25.561Z,0.00
2023-02-21T00:12:25.884Z,0.00
2023-02-21T00:13:26.418Z,0.00
2023-02-21T00:14:25.495Z,0.00
2023-02-21T00:15:26.924Z,0.00
2023-02-21T00:16:25.480Z,0.00
2023-02-21T00:17:26.512Z,0.00
2023-02-21T00:18:26.398Z,0.00
2023-02-21T00:19:25.467Z,0.00
2023-02-21T00:20:25.440Z,0.00
2023-02-21T00:21:25.482Z,0.00
2023-02-21T00:22:25.467Z,0.00
2023-02-21T00:23:25.385Z,0.00
2023-02-21T00:24:25.499Z,0.00
2023-02-21T00:25:26.253Z,0.00
2023-02-21T00:26:26.185Z,0.00
2023-02-21T00:27:25.604Z,0.00
2023-02-21T00:28:25.641Z,0.00
2023-02-21T00:29:26.057Z,0.00
2023-02-21T00:30:25.442Z,0.00
2023-02-21T00:31:26.216Z,0.00
2023-02-21T00:32:26.101Z,0.00
2023-02-21T00:33:25.506Z,0.00
2023-02-21T00:34:26.216Z,0.00
2023-02-21T00:35:25.289Z,0.00
2023-02-21T00:36:25.241Z,0.00
2023-02-21T00:37:25.216Z,0.00
2023-02-21T00:38:26.601Z,0.00
2023-02-21T00:39:25.166Z,0.00
2023-02-21T00:40:26.357Z,0.00
2023-02-21T00:41:25.686Z,0.00
2023-02-21T00:42:25.144Z,0.00
2023-02-21T00:43:26.068Z,0.00
2023-02-21T00:44:25.126Z,0.00
2023-02-21T00:45:25.089Z,0.00
2023-02-21T00:46:25.164Z,0.00
2023-02-21T00:47:26.204Z,0.00
2023-02-21T00:48:25.081Z,0.00
2023-02-21T00:49:25.095Z,0.00
2023-02-21T00:50:26.073Z,0.00
2023-02-21T00:51:25.137Z,0.00
2023-02-21T00:52:25.083Z,0.00
2023-02-21T00:53:25.013Z,0.00
2023-02-21T00:54:25.017Z,0.00
2023-02-21T00:55:25.045Z,0.00
2023-02-21T00:56:25.055Z,0.00
2023-02-21T00:57:24.934Z,0.00
2023-02-21T00:58:24.926Z,0.00
2023-02-21T00:59:24.935Z,0.00
2023-02-21T01:00:25.098Z,0.00
2023-02-21T01:01:24.925Z,0.00
2023-02-21T01:02:24.868Z,0.00
2023-02-21T01:03:24.878Z,0.00
2023-02-21T01:04:25.079Z,0.00
2023-02-21T01:05:24.959Z,0.00
2023-02-21T01:06:25.902Z,0.00
2023-02-21T01:07:24.850Z,0.00
2023-02-21T01:08:24.845Z,0.00
2023-02-21T01:09:24.849Z,0.00
2023-02-21T01:10:24.816Z,0.00
2023-02-21T01:11:24.841Z,0.00
2023-02-21T01:12:24.733Z,0.00
2023-02-21T01:13:24.786Z,0.00
2023-02-21T01:14:26.783Z,0.00
2023-02-21T01:15:24.778Z,0.00
2023-02-21T01:16:25.974Z,0.00
2023-02-21T01:17:24.830Z,0.00
2023-02-21T01:18:24.683Z,0.00
2023-02-21T01:19:24.729Z,0.00
2023-02-21T01:20:24.664Z,0.00
2023-02-21T01:21:24.909Z,0.00
2023-02-21T01:22:25.128Z,0.00
2023-02-21T01:23:24.671Z,0.00
2023-02-21T01:24:24.614Z,0.00
2023-02-21T01:25:25.160Z,0.00
2023-02-21T01:26:24.623Z,0.00
2023-02-21T01:27:24.628Z,0.00
2023-02-21T01:28:24.591Z,0.00
2023-02-21T01:29:24.937Z,0.00
2023-02-21T01:30:24.548Z,0.00
2023-02-21T01:31:24.786Z,0.00
2023-02-21T01:32:24.606Z,0.00
2023-02-21T01:33:24.479Z,0.00
2023-02-21T01:34:25.268Z,0.00
2023-02-21T01:35:24.475Z,0.00
2023-02-21T01:36:24.474Z,0.00
2023-02-21T01:37:24.614Z,0.00
2023-02-21T01:38:24.587Z,0.00
2023-02-21T01:39:25.316Z,0.00
2023-02-21T01:40:24.401Z,0.00
2023-02-21T01:41:25.377Z,0.00
2023-02-21T01:42:25.528Z,0.00
2023-02-21T01:43:24.393Z,0.00
2023-02-21T01:44:24.350Z,0.00
2023-02-21T01:45:24.367Z,0.00
2023-02-21T01:46:24.506Z,0.00
2023-02-21T01:47:25.554Z,0.00
2023-02-21T01:48:24.376Z,0.00
2023-02-21T01:49:25.359Z,0.00
2023-02-21T01:50:25.233Z,0.00
2023-02-21T01:51:24.284Z,0.00
2023-02-21T01:52:24.364Z,0.00
2023-02-21T01:53:24.987Z,0.00
2023-02-21T01:54:25.395Z,0.00
2023-02-21T01:55:24.246Z,0.00
2023-02-21T01:56:24.204Z,0.00
2023-02-21T01:57:24.319Z,0.00
2023-02-21T01:58:24.163Z,0.00
2023-02-21T01:59:24.177Z,0.00
2023-02-21T02:00:24.137Z,0.00
2023-02-21T02:01:24.158Z,0.00
2023-02-21T02:02:24.143Z,0.00
2023-02-21T02:03:24.127Z,0.00
2023-02-21T02:04:24.435Z,0.00
2023-02-21T02:05:24.102Z,0.00
2023-02-21T02:06:24.060Z,0.00
2023-02-21T02:07:25.177Z,0.00
2023-02-21T02:08:24.095Z,0.00
2023-02-21T02:09:24.024Z,0.00
2023-02-21T02:10:24.047Z,0.00
2023-02-21T02:11:24.005Z,0.00
2023-02-21T02:12:24.302Z,0.00
2023-02-21T02:13:23.987Z,0.00
2023-02-21T02:14:23.974Z,0.00
2023-02-21T02:15:23.989Z,0.00
2023-02-21T02:16:23.970Z,0.00
2023-02-21T02:17:23.999Z,0.00
2023-02-21T02:18:23.904Z,0.00
2023-02-21T02:19:23.952Z,0.00
2023-02-21T02:20:24.266Z,0.00
2023-02-21T02:21:23.918Z,0.00
2023-02-21T02:22:23.891Z,0.00
2023-02-21T02:23:23.847Z,0.00
2023-02-21T02:24:23.907Z,0.00
2023-02-21T02:25:23.850Z,0.00
2023-02-21T02:26:23.884Z,0.00
2023-02-21T02:27:23.830Z,0.00
2023-02-21T02:28:23.802Z,0.00
2023-02-21T02:29:23.842Z,0.00
2023-02-21T02:30:23.857Z,0.00
2023-02-21T02:31:23.856Z,0.00
2023-02-21T02:32:23.761Z,0.00
2023-02-21T02:33:23.731Z,0.00
2023-02-21T02:34:23.711Z,0.00
2023-02-21T02:35:23.706Z,0.00
2023-02-21T02:36:24.115Z,0.00
2023-02-21T02:37:23.778Z,0.00
2023-02-21T02:38:24.000Z,0.00
2023-02-21T02:39:23.685Z,0.00
2023-02-21T02:40:23.650Z,0.00
2023-02-21T02:41:23.627Z,0.00
2023-02-21T02:42:24.594Z,0.00
2023-02-21T02:43:23.615Z,0.00
2023-02-21T02:44:23.606Z,0.00
2023-02-21T02:45:23.806Z,0.00
2023-02-21T02:46:23.935Z,0.00
2023-02-21T02:47:23.574Z,0.00
2023-02-21T02:48:23.629Z,0.00
2023-02-21T02:49:23.558Z,0.00
2023-02-21T02:50:23.643Z,0.00
2023-02-21T02:51:24.530Z,0.00
2023-02-21T02:52:23.505Z,0.00
2023-02-21T02:53:23.498Z,0.00
2023-02-21T02:54:24.239Z,0.00
2023-02-21T02:55:23.464Z,0.00
2023-02-21T02:56:23.466Z,0.00
2023-02-21T02:57:23.801Z,0.00
2023-02-21T02:58:23.463Z,0.00
2023-02-21T02:59:23.402Z,0.00
2023-02-21T03:00:23.392Z,0.00
2023-02-21T03:01:23.458Z,0.00
2023-02-21T03:02:23.350Z,0.00
2023-02-21T03:03:24.034Z,0.00
2023-02-21T03:04:23.401Z,0.00
2023-02-21T03:05:23.310Z,0.00
2023-02-21T03:06:23.298Z,0.00
2023-02-21T03:07:24.527Z,0.00
2023-02-21T03:08:23.274Z,0.00
2023-02-21T03:09:23.289Z,0.00
2023-02-21T03:10:23.269Z,0.00
2023-02-21T03:11:23.315Z,0.00
2023-02-21T03:12:23.241Z,0.00
2023-02-21T03:13:23.232Z,0.00
2023-02-21T03:14:23.286Z,0.00
2023-02-21T03:15:23.434Z,0.00
2023-02-21T03:16:23.220Z,0.00
2023-02-21T03:17:23.188Z,0.00
2023-02-21T03:18:23.154Z,0.00
2023-02-21T03:19:23.212Z,0.00
2023-02-21T03:20:23.194Z,0.00
2023-02-21T03:21:23.152Z,0.00
2023-02-21T03:22:23.135Z,0.00
2023-02-21T03:23:23.126Z,0.00
2023-02-21T03:24:23.135Z,0.00
2023-02-21T03:25:23.127Z,0.00
2023-02-21T03:26:23.096Z,0.00
2023-02-21T03:27:23.178Z,0.00
2023-02-21T03:28:23.104Z,0.00
2023-02-21T03:29:23.247Z,0.00
2023-02-21T03:30:23.085Z,0.00
2023-02-21T03:31:23.044Z,0.00
2023-02-21T03:32:23.080Z,0.00
2023-02-21T03:33:23.005Z,0.00
2023-02-21T03:34:23.015Z,0.00
2023-02-21T03:35:22.939Z,0.00
2023-02-21T03:36:22.927Z,0.00
2023-02-21T03:37:22.918Z,0.00
2023-02-21T03:38:22.908Z,0.00
2023-02-21T03:39:22.969Z,0.00
2023-02-21T03:40:22.877Z,0.00
2023-02-21T03:41:23.832Z,0.00
2023-02-21T03:42:22.859Z,0.00
2023-02-21T03:43:22.851Z,0.00
2023-02-21T03:44:22.857Z,0.00
2023-02-21T03:45:22.883Z,0.00
2023-02-21T03:46:22.856Z,0.00
2023-02-21T03:47:22.770Z,0.00
2023-02-21T03:48:31.540Z,0.00
2023-02-21T03:49:24.746Z,0.00
2023-02-21T03:50:22.842Z,0.00
2023-02-21T03:51:22.837Z,0.00
2023-02-21T03:52:22.737Z,0.00
2023-02-21T03:53:22.772Z,0.00
2023-02-21T03:54:22.779Z,0.00
2023-02-21T03:55:22.689Z,0.00
2023-02-21T03:56:26.128Z,0.00
2023-02-21T03:57:23.692Z,0.00
2023-02-21T03:58:22.672Z,0.00
2023-02-21T03:59:22.740Z,0.00
2023-02-21T04:00:22.664Z,0.00
2023-02-21T04:01:22.709Z,0.00
2023-02-21T04:02:22.598Z,0.00
2023-02-21T04:03:22.583Z,0.00
2023-02-21T04:04:22.594Z,0.00
2023-02-21T04:05:22.619Z,0.00
2023-02-21T04:06:22.568Z,0.00
2023-02-21T04:07:22.725Z,0.00
2023-02-21T04:08:22.599Z,0.00
2023-02-21T04:09:22.677Z,0.00
2023-02-21T04:10:22.504Z,0.00
2023-02-21T04:11:22.481Z,0.00
2023-02-21T04:12:22.496Z,0.00
2023-02-21T04:13:22.518Z,0.00
2023-02-21T04:14:22.439Z,0.00
2023-02-21T04:15:22.512Z,0.00
2023-02-21T04:16:22.497Z,0.00
2023-02-21T04:17:22.469Z,0.00
2023-02-21T04:18:22.445Z,0.00
2023-02-21T04:19:23.246Z,0.00
2023-02-21T04:20:22.444Z,0.00
2023-02-21T04:21:22.370Z,0.00
2023-02-21T04:22:22.428Z,0.00
2023-02-21T04:23:22.375Z,0.00
2023-02-21T04:24:23.340Z,0.00
2023-02-21T04:25:22.330Z,0.00
2023-02-21T04:26:22.317Z,0.00
2023-02-21T04:27:22.387Z,0.00
2023-02-21T04:28:22.266Z,0.00
2023-02-21T04:29:22.271Z,0.00
2023-02-21T04:30:22.355Z,0.00
2023-02-21T04:31:22.262Z,0.00
2023-02-21T04:32:23.003Z,0.00
2023-02-21T04:33:22.206Z,0.00
2023-02-21T04:34:22.211Z,0.00
2023-02-21T04:35:23.252Z,0.00
2023-02-21T04:36:22.193Z,0.00
2023-02-21T04:37:22.226Z,0.00
2023-02-21T04:38:22.196Z,0.00
2023-02-21T04:39:22.212Z,0.00
2023-02-21T04:40:22.150Z,0.00
2023-02-21T04:41:22.116Z,0.00
2023-02-21T04:42:22.174Z,0.00
2023-02-21T04:43:22.073Z,0.00
2023-02-21T04:44:22.071Z,0.00
2023-02-21T04:45:22.077Z,0.00
2023-02-21T04:46:22.674Z,0.00
2023-02-21T04:47:22.058Z,0.00
2023-02-21T04:48:22.010Z,0.00
2023-02-21T04:49:22.016Z,0.00
2023-02-21T04:50:22.085Z,0.00
2023-02-21T04:51:22.363Z,0.00
2023-02-21T04:52:21.997Z,0.00
2023-02-21T04:53:21.959Z,0.00
2023-02-21T04:54:21.938Z,0.00
2023-02-21T04:55:21.933Z,0.00
2023-02-21T04:56:21.955Z,0.00
2023-02-21T04:57:21.914Z,0.00
2023-02-21T04:58:21.920Z,0.00
2023-02-21T04:59:22.024Z,0.00
2023-02-21T05:00:21.877Z,0.00
2023-02-21T05:01:21.885Z,0.00
2023-02-21T05:02:22.719Z,0.00
2023-02-21T05:03:21.839Z,0.00
2023-02-21T05:04:21.873Z,0.00
2023-02-21T05:05:21.816Z,0.00
2023-02-21T05:06:21.802Z,0.00
2023-02-21T05:07:21.802Z,0.00
2023-02-21T05:08:25.927Z,0.00
2023-02-21T05:09:21.788Z,0.00
2023-02-21T05:10:21.756Z,0.00
2023-02-21T05:11:21.931Z,0.00
2023-02-21T05:12:21.743Z,0.00
2023-02-21T05:13:21.770Z,0.00
2023-02-21T05:14:21.761Z,0.00
2023-02-21T05:15:21.661Z,0.00
2023-02-21T05:16:21.680Z,0.00
2023-02-21T05:17:22.807Z,0.00
2023-02-21T05:18:21.640Z,0.00
2023-02-21T05:19:21.622Z,0.00
2023-02-21T05:20:21.603Z,0.00
2023-02-21T05:21:21.584Z,0.00
2023-02-21T05:22:22.587Z,0.00
2023-02-21T05:23:21.578Z,0.00
2023-02-21T05:24:21.677Z,0.00
2023-02-21T05:25:22.479Z,0.00
2023-02-21T05:26:21.659Z,0.00
2023-02-21T05:27:22.361Z,0.00
2023-02-21T05:28:21.670Z,0.00
2023-02-21T05:29:21.592Z,0.00
2023-02-21T05:30:21.549Z,0.00
2023-02-21T05:31:22.477Z,0.00
2023-02-21T05:32:22.159Z,0.00
2023-02-21T05:33:21.509Z,0.00
2023-02-21T05:34:21.486Z,0.00
2023-02-21T05:35:21.443Z,0.00
2023-02-21T05:36:21.432Z,0.00
2023-02-21T05:37:22.414Z,0.00
2023-02-21T05:38:22.330Z,0.00
2023-02-21T05:39:21.799Z,0.00
2023-02-21T05:40:22.301Z,0.00
2023-02-21T05:41:21.365Z,0.00
2023-02-21T05:42:21.380Z,0.00
2023-02-21T05:43:22.354Z,0.00
2023-02-21T05:44:21.802Z,0.00
2023-02-21T05:45:21.319Z,0.00
2023-02-21T05:46:21.458Z,0.00
2023-02-21T05:47:21.299Z,0.00
2023-02-21T05:48:21.280Z,0.00
2023-02-21T05:49:22.288Z,0.00
2023-02-21T05:50:21.304Z,0.00
2023-02-21T05:51:21.225Z,0.00
2023-02-21T05:52:22.008Z,0.00
2023-02-21T05:53:22.131Z,0.00
2023-02-21T05:54:21.343Z,0.00
2023-02-21T05:55:21.394Z,0.00
2023-02-21T05:56:21.205Z,0.00
2023-02-21T05:57:21.444Z,0.00
2023-02-21T05:58:21.138Z,4.00
2023-02-21T05:59:21.119Z,4.00
2023-02-21T06:00:21.139Z,4.00
2023-02-21T06:01:21.239Z,4.00
2023-02-21T06:02:21.116Z,4.00
2023-02-21T06:03:21.994Z,4.00
2023-02-21T06:04:21.260Z,8.00
2023-02-21T06:05:21.056Z,4.00
2023-02-21T06:06:21.020Z,8.00
2023-02-21T06:07:21.066Z,12.00
2023-02-21T06:08:21.999Z,12.00
2023-02-21T06:09:21.899Z,12.00
2023-02-21T06:10:21.807Z,16.00
2023-02-21T06:11:21.057Z,12.00
2023-02-21T06:12:21.105Z,16.00
2023-02-21T06:13:20.967Z,20.00
2023-02-21T06:14:21.080Z,24.00
2023-02-21T06:15:21.846Z,28.00
2023-02-21T06:16:21.847Z,28.00
2023-02-21T06:17:20.903Z,32.00
2023-02-21T06:18:21.908Z,32.00
2023-02-21T06:19:20.947Z,36.00
2023-02-21T06:20:21.864Z,52.00
2023-02-21T06:21:21.648Z,52.00
2023-02-21T06:22:21.680Z,60.00
2023-02-21T06:23:20.867Z,64.00
2023-02-21T06:24:20.817Z,84.00
2023-02-21T06:25:20.958Z,76.00
2023-02-21T06:26:20.762Z,76.00
2023-02-21T06:27:20.769Z,88.00
2023-02-21T06:28:20.846Z,88.00
2023-02-21T06:29:20.806Z,92.00
2023-02-21T06:30:23.095Z,104.00
2023-02-21T06:31:21.910Z,108.00
2023-02-21T06:32:21.422Z,92.00
2023-02-21T06:33:21.642Z,96.00
2023-02-21T06:34:20.728Z,112.00
2023-02-21T06:35:20.654Z,144.00
2023-02-21T06:36:20.736Z,180.00
2023-02-21T06:37:20.659Z,172.00
2023-02-21T06:38:20.662Z,188.00
2023-02-21T06:39:21.193Z,200.00
2023-02-21T06:40:21.414Z,184.00
2023-02-21T06:41:20.624Z,200.00
2023-02-21T06:42:22.025Z,236.00
2023-02-21T06:43:21.725Z,236.00
2023-02-21T06:44:20.758Z,232.00
2023-02-21T06:45:20.908Z,236.00
2023-02-21T06:46:20.569Z,272.00
2023-02-21T06:47:21.332Z,288.00
2023-02-21T06:48:21.243Z,304.00
2023-02-21T06:49:20.509Z,280.00
2023-02-21T06:50:21.564Z,236.00
2023-02-21T06:51:20.486Z,280.00
2023-02-21T06:52:20.470Z,372.00
2023-02-21T06:53:20.495Z,340.00
2023-02-21T06:54:20.605Z,364.00
2023-02-21T06:55:20.554Z,368.00
2023-02-21T06:56:20.985Z,396.00
2023-02-21T06:57:21.401Z,356.00
2023-02-21T06:58:20.408Z,372.00
2023-02-21T06:59:20.360Z,352.00
2023-02-21T07:00:20.364Z,396.00
2023-02-21T07:01:21.255Z,400.00
2023-02-21T07:02:20.374Z,392.00
2023-02-21T07:03:20.314Z,412.00
2023-02-21T07:04:20.377Z,352.00
2023-02-21T07:05:20.324Z,368.00
2023-02-21T07:06:20.341Z,360.00
2023-02-21T07:07:20.809Z,384.00
2023-02-21T07:08:20.334Z,356.00
2023-02-21T07:09:20.481Z,384.00
2023-02-21T07:10:20.362Z,436.00
2023-02-21T07:11:21.077Z,480.00
2023-02-21T07:12:20.346Z,488.00
2023-02-21T07:13:22.424Z,572.00
2023-02-21T07:14:20.174Z,584.00
2023-02-21T07:15:20.196Z,576.00
2023-02-21T07:16:20.153Z,664.00
2023-02-21T07:17:21.151Z,748.00
2023-02-21T07:18:20.104Z,940.00
2023-02-21T07:19:23.761Z,1280.00
2023-02-21T07:20:20.106Z,1280.00
2023-02-21T07:21:20.061Z,1296.00
2023-02-21T07:22:20.126Z,916.00
2023-02-21T07:23:20.150Z,788.00
2023-02-21T07:24:20.222Z,628.00
2023-02-21T07:25:21.261Z,656.00
2023-02-21T07:26:20.329Z,620.00
2023-02-21T07:27:20.118Z,744.00
2023-02-21T07:28:19.970Z,700.00
2023-02-21T07:29:20.041Z,780.00
2023-02-21T07:30:19.960Z,780.00
2023-02-21T07:31:21.369Z,800.00
2023-02-21T07:32:21.436Z,660.00
2023-02-21T07:33:21.008Z,696.00
2023-02-21T07:34:20.873Z,900.00
2023-02-21T07:35:20.029Z,868.00
2023-02-21T07:36:20.044Z,900.00
2023-02-21T07:37:20.043Z,1164.00
2023-02-21T07:38:21.302Z,1176.00
2023-02-21T07:39:20.956Z,1448.00
2023-02-21T07:40:19.868Z,1216.00
2023-02-21T07:41:20.761Z,1196.00
2023-02-21T07:42:19.977Z,1308.00
2023-02-21T07:43:19.956Z,1480.00
2023-02-21T07:44:20.980Z,1332.00
2023-02-21T07:45:19.888Z,1480.00
2023-02-21T07:46:19.937Z,1184.00
2023-02-21T07:47:20.689Z,928.00
2023-02-21T07:48:20.610Z,952.00
2023-02-21T07:49:19.767Z,960.00
2023-02-21T07:50:19.882Z,1132.00
2023-02-21T07:51:19.688Z,1208.00
2023-02-21T07:52:19.931Z,1220.00
2023-02-21T07:53:19.863Z,1376.00
2023-02-21T07:54:19.693Z,1200.00
2023-02-21T07:55:19.695Z,1196.00
2023-02-21T07:56:19.693Z,1052.00
2023-02-21T07:57:19.690Z,1032.00
2023-02-21T07:58:21.516Z,948.00
2023-02-21T07:59:19.716Z,976.00
2023-02-21T08:00:19.968Z,1168.00
2023-02-21T08:01:20.107Z,1768.00
2023-02-21T08:02:19.705Z,1992.00
2023-02-21T08:03:20.975Z,2252.00
2023-02-21T08:04:19.560Z,2620.00
2023-02-21T08:05:19.695Z,2252.00
2023-02-21T08:06:19.608Z,1788.00
2023-02-21T08:07:19.733Z,1584.00
2023-02-21T08:08:19.894Z,2092.00
2023-02-21T08:09:19.540Z,1780.00
2023-02-21T08:10:19.468Z,1560.00
2023-02-21T08:11:19.654Z,2020.00
2023-02-21T08:12:19.601Z,2048.00
2023-02-21T08:13:19.482Z,1956.00
2023-02-21T08:14:20.655Z,1652.00
2023-02-21T08:15:19.390Z,2044.00
2023-02-21T08:16:19.444Z,1876.00
2023-02-21T08:17:19.550Z,2184.00
2023-02-21T08:18:19.341Z,2320.00
2023-02-21T08:19:20.177Z,2312.00
2023-02-21T08:20:20.583Z,2620.00
2023-02-21T08:21:19.372Z,2576.00
2023-02-21T08:22:19.308Z,2380.00
2023-02-21T08:23:19.300Z,1900.00
2023-02-21T08:24:19.878Z,2320.00
2023-02-21T08:25:19.319Z,2872.00
2023-02-21T08:26:19.640Z,2580.00
2023-02-21T08:27:19.283Z,2596.00
2023-02-21T08:28:20.198Z,2600.00
2023-02-21T08:29:19.444Z,3912.00
2023-02-21T08:30:19.913Z,4452.00
2023-02-21T08:31:20.062Z,4060.00
2023-02-21T08:32:19.996Z,4480.00
2023-02-21T08:33:19.202Z,3468.00
2023-02-21T08:34:19.147Z,3068.00
2023-02-21T08:35:19.179Z,3924.00
2023-02-21T08:36:19.293Z,3784.00
2023-02-21T08:37:19.187Z,2788.00
2023-02-21T08:38:19.280Z,2248.00
2023-02-21T08:39:19.097Z,1880.00
2023-02-21T08:40:20.520Z,1724.00
2023-02-21T08:41:19.073Z,2136.00
2023-02-21T08:42:19.134Z,1996.00
2023-02-21T08:43:19.626Z,2720.00
2023-02-21T08:44:19.040Z,2964.00
2023-02-21T08:45:19.099Z,2608.00
2023-02-21T08:46:19.006Z,3552.00
2023-02-21T08:47:19.807Z,3048.00
2023-02-21T08:48:19.956Z,2964.00
2023-02-21T08:49:19.029Z,3552.00
2023-02-21T08:50:18.951Z,3036.00
2023-02-21T08:51:18.948Z,2812.00
2023-02-21T08:52:19.160Z,2404.00
2023-02-21T08:53:19.012Z,3248.00
2023-02-21T08:54:18.927Z,3640.00
2023-02-21T08:55:18.980Z,2516.00
2023-02-21T08:56:19.759Z,2740.00
2023-02-21T08:57:18.876Z,2732.00
2023-02-21T08:58:18.927Z,2336.00
2023-02-21T08:59:19.925Z,2216.00
2023-02-21T09:00:18.804Z,2408.00
2023-02-21T09:01:19.463Z,2148.00
2023-02-21T09:02:18.925Z,1844.00
2023-02-21T09:03:18.773Z,2420.00
2023-02-21T09:04:19.952Z,2216.00
2023-02-21T09:05:19.744Z,2388.00
2023-02-21T09:06:18.857Z,2444.00
2023-02-21T09:07:18.816Z,3520.00
2023-02-21T09:08:18.693Z,4080.00
2023-02-21T09:09:18.841Z,4284.00
2023-02-21T09:10:18.686Z,3348.00
2023-02-21T09:11:19.786Z,3096.00
2023-02-21T09:12:19.696Z,3708.00
2023-02-21T09:13:18.688Z,4128.00
2023-02-21T09:14:18.745Z,4128.00
2023-02-21T09:15:18.683Z,3868.00
2023-02-21T09:16:18.656Z,3856.00
2023-02-21T09:17:18.633Z,3660.00
2023-02-21T09:18:19.056Z,3224.00
2023-02-21T09:19:18.610Z,3084.00
2023-02-21T09:20:19.443Z,2736.00
2023-02-21T09:21:19.344Z,2916.00
2023-02-21T09:22:18.736Z,3084.00
2023-02-21T09:23:18.554Z,3212.00
2023-02-21T09:24:18.507Z,3760.00
2023-02-21T09:25:19.468Z,3364.00
2023-02-21T09:26:18.502Z,3212.00
2023-02-21T09:27:18.503Z,3092.00
2023-02-21T09:28:19.692Z,3728.00
2023-02-21T09:29:18.455Z,3684.00
2023-02-21T09:30:19.576Z,3728.00
2023-02-21T09:31:26.436Z,3588.00
2023-02-21T09:32:18.441Z,4456.00
2023-02-21T09:33:19.231Z,4364.00
2023-02-21T09:34:18.479Z,4008.00
2023-02-21T09:35:18.426Z,3760.00
2023-02-21T09:36:19.446Z,3860.00
2023-02-21T09:37:18.394Z,4448.00
2023-02-21T09:38:19.246Z,5376.00
2023-02-21T09:39:19.206Z,4356.00
2023-02-21T09:40:18.345Z,3844.00
2023-02-21T09:41:18.486Z,4384.00
2023-02-21T09:42:18.263Z,4832.00
2023-02-21T09:43:19.689Z,3696.00
2023-02-21T09:44:18.386Z,3860.00
2023-02-21T09:45:19.084Z,3604.00
2023-02-21T09:46:18.213Z,4060.00
2023-02-21T09:47:18.332Z,3636.00
2023-02-21T09:48:18.241Z,4464.00
2023-02-21T09:49:18.178Z,4276.00
2023-02-21T09:50:19.107Z,3796.00
2023-02-21T09:51:18.640Z,3992.00
2023-02-21T09:52:18.936Z,4244.00
2023-02-21T09:53:18.149Z,4256.00
2023-02-21T09:54:18.098Z,5164.00
2023-02-21T09:55:18.095Z,4064.00
2023-02-21T09:56:19.059Z,3868.00
2023-02-21T09:57:18.338Z,4688.00
2023-02-21T09:58:18.081Z,4732.00
2023-02-21T09:59:18.052Z,4336.00
2023-02-21T10:00:19.184Z,4576.00
2023-02-21T10:01:18.052Z,4580.00
2023-02-21T10:02:19.002Z,5196.00
2023-02-21T10:03:18.894Z,4104.00
2023-02-21T10:04:18.694Z,3404.00
2023-02-21T10:05:17.953Z,3480.00
2023-02-21T10:06:18.344Z,3500.00
2023-02-21T10:07:17.960Z,2836.00
2023-02-21T10:08:18.022Z,2732.00
2023-02-21T10:09:18.026Z,3292.00
2023-02-21T10:10:17.885Z,3520.00
2023-02-21T10:11:17.945Z,2896.00
2023-02-21T10:12:17.965Z,2500.00
2023-02-21T10:13:17.858Z,2524.00
2023-02-21T10:14:18.896Z,2492.00
2023-02-21T10:15:17.869Z,2840.00
2023-02-21T10:16:17.978Z,2500.00
2023-02-21T10:17:17.955Z,2524.00
2023-02-21T10:18:19.593Z,2576.00
2023-02-21T10:19:17.776Z,2404.00
2023-02-21T10:20:17.760Z,2216.00
2023-02-21T10:21:17.913Z,2528.00
2023-02-21T10:22:17.781Z,2612.00
2023-02-21T10:23:18.036Z,2340.00
2023-02-21T10:24:17.758Z,2920.00
2023-02-21T10:25:17.768Z,3016.00
2023-02-21T10:26:18.738Z,2536.00
2023-02-21T10:27:17.699Z,2588.00
2023-02-21T10:28:18.727Z,2360.00
2023-02-21T10:29:18.083Z,2380.00
2023-02-21T10:30:18.943Z,2304.00
2023-02-21T10:31:17.912Z,2072.00
2023-02-21T10:32:17.740Z,2060.00
2023-02-21T10:33:17.641Z,2424.00
2023-02-21T10:34:18.476Z,2392.00
2023-02-21T10:35:17.676Z,2308.00
2023-02-21T10:36:18.790Z,2240.00
2023-02-21T10:37:17.711Z,2656.00
2023-02-21T10:38:17.549Z,2616.00
2023-02-21T10:39:18.498Z,2248.00
2023-02-21T10:40:17.639Z,2620.00
2023-02-21T10:41:18.324Z,2800.00
2023-02-21T10:42:17.466Z,3064.00
2023-02-21T10:43:18.638Z,2900.00
2023-02-21T10:44:18.547Z,2492.00
2023-02-21T10:45:17.732Z,2676.00
2023-02-21T10:46:17.458Z,3492.00
2023-02-21T10:47:18.250Z,3188.00
2023-02-21T10:48:17.391Z,2956.00
2023-02-21T10:49:17.392Z,2468.00
2023-02-21T10:50:17.382Z,2620.00
2023-02-21T10:51:17.958Z,2444.00
2023-02-21T10:52:17.661Z,2876.00
2023-02-21T10:53:17.547Z,3048.00
2023-02-21T10:54:17.710Z,3240.00
2023-02-21T10:55:31.397Z,2764.00
2023-02-21T10:56:18.334Z,2244.00
2023-02-21T10:57:17.400Z,2504.00
2023-02-21T10:58:17.305Z,2280.00
2023-02-21T10:59:18.121Z,2768.00
2023-02-21T11:00:17.537Z,3028.00
2023-02-21T11:01:18.774Z,4012.00
2023-02-21T11:02:17.266Z,3132.00
2023-02-21T11:03:17.207Z,3104.00
2023-02-21T11:04:18.208Z,2140.00
2023-02-21T11:05:18.064Z,1684.00
2023-02-21T11:06:17.163Z,1644.00
2023-02-21T11:07:18.047Z,1624.00
2023-02-21T11:08:18.286Z,1676.00
2023-02-21T11:09:17.427Z,1828.00
2023-02-21T11:10:17.112Z,2416.00
2023-02-21T11:11:17.182Z,2856.00
2023-02-21T11:12:17.091Z,2364.00
2023-02-21T11:13:18.318Z,2504.00
2023-02-21T11:14:17.544Z,2704.00
2023-02-21T11:15:17.104Z,2944.00
2023-02-21T11:16:17.447Z,3308.00
2023-02-21T11:17:17.138Z,4840.00
2023-02-21T11:18:17.839Z,4920.00
2023-02-21T11:19:17.025Z,5696.00
2023-02-21T11:20:18.196Z,8528.00
2023-02-21T11:21:17.349Z,4764.00
2023-02-21T11:22:17.050Z,5400.00
2023-02-21T11:23:17.507Z,5252.00
2023-02-21T11:24:17.775Z,6236.00
2023-02-21T11:25:17.096Z,8924.00
2023-02-21T11:26:16.940Z,6552.00
2023-02-21T11:27:16.867Z,7824.00
2023-02-21T11:28:16.866Z,8464.00
2023-02-21T11:29:17.187Z,9820.00
2023-02-21T11:30:16.890Z,10696.00
2023-02-21T11:31:17.275Z,11188.00
2023-02-21T11:32:17.126Z,9932.00
2023-02-21T11:33:16.880Z,9288.00
2023-02-21T11:34:16.824Z,9276.00
2023-02-21T11:35:16.773Z,9200.00
2023-02-21T11:36:16.803Z,7984.00
2023-02-21T11:37:16.747Z,8808.00
2023-02-21T11:38:16.712Z,10392.00
2023-02-21T11:39:17.879Z,10600.00
2023-02-21T11:40:16.869Z,10732.00
2023-02-21T11:41:17.687Z,10096.00
2023-02-21T11:42:16.877Z,10428.00
2023-02-21T11:43:16.670Z,9236.00
2023-02-21T11:44:17.908Z,8116.00
2023-02-21T11:45:16.696Z,6992.00
2023-02-21T11:46:16.686Z,6372.00
2023-02-21T11:47:16.740Z,5740.00
2023-02-21T11:48:16.656Z,6412.00
2023-02-21T11:49:16.712Z,7484.00
2023-02-21T11:50:16.618Z,6924.00
2023-02-21T11:51:16.849Z,6312.00
2023-02-21T11:52:16.589Z,7640.00
2023-02-21T11:53:16.580Z,6344.00
2023-02-21T11:54:16.699Z,5172.00
2023-02-21T11:55:16.544Z,3824.00
2023-02-21T11:56:17.043Z,3964.00
2023-02-21T11:57:16.644Z,4840.00
2023-02-21T11:58:16.739Z,5332.00
2023-02-21T11:59:16.438Z,4996.00
2023-02-21T12:00:16.518Z,5720.00
2023-02-21T12:01:16.646Z,8488.00
2023-02-21T12:02:16.709Z,8556.00
2023-02-21T12:03:16.469Z,7668.00
2023-02-21T12:04:16.510Z,8440.00
2023-02-21T12:05:16.403Z,8604.00
2023-02-21T12:06:16.400Z,8236.00
2023-02-21T12:07:16.462Z,8532.00
2023-02-21T12:08:16.760Z,9092.00
2023-02-21T12:09:16.374Z,8504.00
2023-02-21T12:10:16.310Z,8148.00
2023-02-21T12:11:17.727Z,7844.00
2023-02-21T12:12:17.254Z,6524.00
2023-02-21T12:13:16.287Z,5664.00
2023-02-21T12:14:16.513Z,6168.00
2023-02-21T12:15:16.260Z,6564.00
2023-02-21T12:16:16.302Z,6792.00
2023-02-21T12:17:16.249Z,7552.00
2023-02-21T12:18:16.420Z,7796.00
2023-02-21T12:19:16.194Z,8100.00
2023-02-21T12:20:16.331Z,8176.00
2023-02-21T12:21:17.680Z,7668.00
2023-02-21T12:22:16.253Z,6908.00
2023-02-21T12:23:17.231Z,7100.00
2023-02-21T12:24:16.303Z,7420.00
2023-02-21T12:25:16.180Z,7868.00
2023-02-21T12:26:16.234Z,7856.00
2023-02-21T12:27:16.138Z,7372.00
2023-02-21T12:28:16.106Z,7888.00
2023-02-21T12:29:16.731Z,9828.00
2023-02-21T12:30:17.126Z,10144.00
2023-02-21T12:31:16.467Z,9596.00
2023-02-21T12:32:16.080Z,9064.00
2023-02-21T12:33:16.047Z,9888.00
2023-02-21T12:34:16.009Z,10040.00
2023-02-21T12:35:16.049Z,10200.00
2023-02-21T12:36:17.008Z,10316.00
2023-02-21T12:37:15.953Z,9740.00
2023-02-21T12:38:16.462Z,9988.00
2023-02-21T12:39:15.964Z,9724.00
2023-02-21T12:40:15.955Z,9640.00
2023-02-21T12:41:16.333Z,9088.00
2023-02-21T12:42:15.894Z,8532.00